Time;durP1;ratioP1;P1;durP2;ratioP2;P2;SDS_P1;SDS_P2;PMS_P1;PMS_P2;Temp;Humidity;BMP_temperature;BMP_pressure;BME280_temperature;BME280_humidity;BME280_pressure;Samples;Min_cycle;Max_cycle;Signal;HPM_P1;HPM_P2
2023/10/26 00:00:48;;;;;;;36.50;25.55;;;;;;;11.72;nan;98336.59;4934480;28;98307;-88
2023/10/26 00:03:14;;;;;;;34.22;23.67;;;;;;;11.47;nan;98281.44;4903875;28;96856;-90
2023/10/26 00:05:39;;;;;;;32.83;21.52;;;;;;;11.95;nan;98331.50;4937267;28;97676;-84
2023/10/26 00:08:04;;;;;;;31.67;21.95;;;;;;;11.84;nan;98328.75;4921204;28;100768;-87
2023/10/26 00:10:30;;;;;;;33.92;22.20;;;;;;;12.08;nan;98337.59;4921441;28;101437;-86
2023/10/26 00:12:56;;;;;;;38.22;21.60;;;;;;;12.09;nan;98331.34;4921997;28;96601;-86
2023/10/26 00:15:21;;;;;;;31.85;21.55;;;;;;;12.04;nan;98320.31;4922192;28;96581;-87
2023/10/26 00:17:47;;;;;;;36.33;22.95;;;;;;;12.16;nan;98313.38;4937795;28;101278;-87
2023/10/26 00:20:13;;;;;;;34.65;23.02;;;;;;;12.12;nan;98319.78;4921795;28;97699;-86
2023/10/26 00:22:38;;;;;;;33.83;21.00;;;;;;;12.14;nan;98302.94;4906160;28;96719;-86
2023/10/26 00:25:04;;;;;;;29.85;22.13;;;;;;;12.27;nan;98316.03;4906217;28;96911;-87
2023/10/26 00:27:30;;;;;;;32.95;22.08;;;;;;;12.08;nan;98313.91;4937625;28;101322;-86
2023/10/26 00:29:55;;;;;;;33.83;21.30;;;;;;;12.21;nan;98319.94;4921465;28;102364;-86
2023/10/26 00:32:21;;;;;;;29.58;19.92;;;;;;;12.14;nan;98295.06;4905260;28;96573;-85
2023/10/26 00:34:46;;;;;;;33.38;22.02;;;;;;;12.19;nan;98319.25;4921918;28;96831;-86
2023/10/26 00:37:12;;;;;;;29.80;21.33;;;;;;;11.93;nan;98286.94;4921329;28;100695;-87
2023/10/26 00:39:39;;;;;;;30.13;20.00;;;;;;;12.09;nan;98302.44;4921722;28;100015;-86
2023/10/26 00:42:04;;;;;;;30.60;21.30;;;;;;;12.18;nan;98309.66;4905690;28;96622;-85
2023/10/26 00:44:30;;;;;;;28.17;20.00;;;;;;;12.04;nan;98274.78;4920698;28;97033;-85
2023/10/26 00:46:57;;;;;;;33.30;20.95;;;;;;;12.22;nan;98300.59;4937387;28;98141;-86
2023/10/26 00:49:23;;;;;;;28.73;20.48;;;;;;;12.04;nan;98266.91;4921742;28;97283;-86
2023/10/26 00:51:59;;;;;;;32.33;21.23;;;;;;;12.18;nan;98290.41;4921402;28;96607;-85
2023/10/26 00:54:25;;;;;;;27.77;18.42;;;;;;;12.14;nan;98288.97;4921467;28;96754;-86
2023/10/26 00:56:51;;;;;;;29.23;19.80;;;;;;;12.01;nan;98262.69;4936669;28;100114;-85
2023/10/26 00:59:17;;;;;;;26.50;18.90;;;;;;;12.15;nan;98290.63;4920652;28;101017;-85
2023/10/26 01:01:48;;;;;;;27.23;18.83;;;;;;;12.17;nan;98294.00;4938136;28;96646;-85
2023/10/26 01:04:14;;;;;;;26.50;18.23;;;;;;;12.23;nan;98299.66;4908897;28;96839;-86
2023/10/26 01:06:40;;;;;;;28.65;18.08;;;;;;;12.27;nan;98292.38;4924187;28;101362;-85
2023/10/26 01:09:08;;;;;;;29.85;18.30;;;;;;;12.22;nan;98284.81;4924328;28;101109;-85
2023/10/26 01:11:34;;;;;;;29.25;17.90;;;;;;;12.28;nan;98287.97;4958243;28;96638;-85
2023/10/26 01:14:00;;;;;;;26.00;17.15;;;;;;;12.19;nan;98281.59;4925157;28;96891;-86
2023/10/26 01:16:25;;;;;;;30.55;19.55;;;;;;;12.02;nan;98276.72;4924176;28;100939;-85
2023/10/26 01:18:51;;;;;;;23.88;17.98;;;;;;;12.05;nan;98263.34;4923903;28;101625;-85
2023/10/26 01:21:16;;;;;;;24.30;18.20;;;;;;;12.04;nan;98254.59;4923980;28;96558;-85
2023/10/26 01:23:42;;;;;;;28.63;18.85;;;;;;;11.79;nan;98280.00;4908318;28;96974;-86
2023/10/26 01:26:07;;;;;;;28.20;18.42;;;;;;;11.48;nan;98268.16;4907830;28;101404;-85
2023/10/26 01:28:33;;;;;;;24.85;16.17;;;;;;;11.68;nan;98276.44;4924204;28;97730;-85
2023/10/26 01:30:58;;;;;;;22.35;17.52;;;;;;;11.76;nan;98268.88;4924181;28;96966;-86
2023/10/26 01:33:25;;;;;;;27.75;17.70;;;;;;;11.64;nan;98253.97;4940184;28;96842;-86
2023/10/26 01:35:51;;;;;;;24.27;17.80;;;;;;;11.73;nan;98242.81;4923937;28;101012;-86
2023/10/26 01:38:16;;;;;;;25.05;19.15;;;;;;;11.75;nan;98243.50;4923664;28;101112;-86
2023/10/26 01:40:42;;;;;;;28.55;17.02;;;;;;;11.70;nan;98220.19;4923875;28;96601;-85
2023/10/26 01:43:08;;;;;;;33.17;18.67;;;;;;;11.96;nan;98228.03;4923669;28;96889;-86
2023/10/26 01:45:33;;;;;;;29.00;18.27;;;;;;;11.77;nan;98217.97;4923619;28;98421;-87
2023/10/26 01:48:03;;;;;;;30.95;17.15;;;;;;;11.78;nan;98222.28;4923675;28;101036;-86
2023/10/26 01:50:30;;;;;;;25.25;16.15;;;;;;;11.91;nan;98227.53;4924026;28;96642;-86
2023/10/26 01:52:56;;;;;;;25.92;17.90;;;;;;;11.71;nan;98227.13;4940151;28;96785;-85
2023/10/26 01:55:22;;;;;;;24.95;18.40;;;;;;;11.64;nan;98194.38;4923310;28;101739;-85
2023/10/26 01:57:48;;;;;;;22.63;17.40;;;;;;;11.91;nan;98224.88;4923311;28;101517;-86
2023/10/26 02:00:14;;;;;;;26.85;17.20;;;;;;;11.89;nan;98230.25;4924133;28;96639;-86
2023/10/26 02:02:40;;;;;;;25.95;16.58;;;;;;;11.98;nan;98211.19;4940374;28;96912;-85
2023/10/26 02:05:06;;;;;;;26.10;17.38;;;;;;;12.01;nan;98215.38;4923850;28;101200;-86
2023/10/26 02:07:33;;;;;;;25.10;17.73;;;;;;;11.82;nan;98201.88;4923313;28;101150;-85
2023/10/26 02:09:59;;;;;;;24.42;17.02;;;;;;;11.91;nan;98203.84;4939821;28;96579;-86
2023/10/26 02:12:25;;;;;;;21.90;16.42;;;;;;;12.03;nan;98196.88;4923426;28;96820;-85
2023/10/26 02:14:50;;;;;;;26.48;17.48;;;;;;;11.61;nan;98186.72;4923078;28;101293;-85
2023/10/26 02:17:16;;;;;;;22.27;16.20;;;;;;;11.52;nan;98182.13;4906977;28;101510;-85
2023/10/26 02:19:42;;;;;;;22.70;16.30;;;;;;;11.50;nan;98174.31;4923413;28;96652;-86
2023/10/26 02:22:07;;;;;;;26.77;16.67;;;;;;;11.69;nan;98181.75;4923659;28;96821;-85
2023/10/26 02:24:33;;;;;;;25.80;17.08;;;;;;;11.65;nan;98187.31;4923077;28;101136;-84
2023/10/26 02:26:58;;;;;;;25.58;17.48;;;;;;;11.60;nan;98181.53;4923387;28;101182;-86
2023/10/26 02:29:24;;;;;;;24.58;17.17;;;;;;;11.53;nan;98178.53;4923345;28;96655;-86
2023/10/26 02:31:49;;;;;;;22.60;18.00;;;;;;;11.60;nan;98176.28;4907318;28;96861;-86
2023/10/26 02:34:15;;;;;;;22.10;16.65;;;;;;;11.71;nan;98171.94;4922713;28;101426;-84
2023/10/26 02:36:41;;;;;;;27.13;16.95;;;;;;;11.54;nan;98177.56;4939132;28;99868;-86
2023/10/26 02:39:07;;;;;;;24.60;17.13;;;;;;;11.63;nan;98160.31;4923042;28;96726;-85
2023/10/26 02:41:32;;;;;;;22.45;16.98;;;;;;;11.59;nan;98150.97;4939706;28;96860;-86
2023/10/26 02:43:58;;;;;;;26.10;15.82;;;;;;;11.77;nan;98158.34;4938821;28;99915;-85
2023/10/26 02:46:23;;;;;;;25.77;16.30;;;;;;;11.83;nan;98138.66;4922910;28;101116;-86
2023/10/26 02:48:49;;;;;;;22.33;16.40;;;;;;;11.83;nan;98115.00;4939739;28;96573;-86
2023/10/26 02:51:15;;;;;;;24.08;16.92;;;;;;;11.94;nan;98137.91;4923837;28;96792;-86
2023/10/26 02:53:42;;;;;;;24.35;16.67;;;;;;;11.91;nan;98144.22;4922654;28;101664;-86
2023/10/26 02:56:08;;;;;;;24.05;15.98;;;;;;;11.72;nan;98100.03;4939042;28;98004;-86
2023/10/26 02:58:33;;;;;;;24.55;16.38;;;;;;;11.97;nan;98143.75;4906257;28;96658;-86
2023/10/26 03:00:59;;;;;;;21.25;15.70;;;;;;;11.78;nan;98091.69;4922898;28;96833;-86
2023/10/26 03:03:25;;;;;;;28.52;16.58;;;;;;;11.74;nan;98092.03;4938555;28;100968;-86
2023/10/26 03:05:51;;;;;;;19.38;15.02;;;;;;;11.95;nan;98134.31;4922362;28;100226;-87
2023/10/26 03:08:17;;;;;;;23.35;15.15;;;;;;;12.05;nan;98145.00;4922658;28;96652;-86
2023/10/26 03:10:42;;;;;;;23.52;15.20;;;;;;;11.94;nan;98124.75;4923226;28;96819;-86
2023/10/26 03:13:08;;;;;;;24.25;15.45;;;;;;;11.82;nan;98123.00;4922285;28;100902;-86
2023/10/26 03:15:34;;;;;;;20.38;15.23;;;;;;;11.92;nan;98124.03;4922889;28;97902;-86
2023/10/26 03:17:59;;;;;;;23.88;15.57;;;;;;;11.82;nan;98110.69;4922425;28;96633;-85
2023/10/26 03:20:25;;;;;;;19.98;15.70;;;;;;;11.85;nan;98128.03;4906733;28;96953;-86
2023/10/26 03:22:51;;;;;;;23.23;16.67;;;;;;;11.75;nan;98106.84;4921791;28;101468;-85
2023/10/26 03:25:16;;;;;;;24.25;16.33;;;;;;;11.64;nan;98094.50;4905487;28;101290;-85
2023/10/26 03:27:42;;;;;;;23.55;15.10;;;;;;;11.84;nan;98121.09;4906248;28;96602;-85
2023/10/26 03:30:09;;;;;;;23.90;16.10;;;;;;;11.76;nan;98100.66;4922573;28;96912;-86
2023/10/26 03:32:35;;;;;;;25.98;15.40;;;;;;;11.69;nan;98084.50;4922482;28;101462;-86
2023/10/26 03:35:01;;;;;;;23.45;15.30;;;;;;;11.88;nan;98117.34;4922244;28;100733;-87
2023/10/26 03:37:27;;;;;;;25.00;13.95;;;;;;;11.94;nan;98114.25;4906506;28;96564;-86
2023/10/26 03:39:53;;;;;;;22.73;14.85;;;;;;;11.79;nan;98109.13;4939396;28;96937;-86
2023/10/26 03:42:19;;;;;;;21.73;15.13;;;;;;;11.67;nan;98081.13;4922477;28;101439;-86
2023/10/26 03:44:44;;;;;;;23.90;15.50;;;;;;;11.94;nan;98109.81;4921549;28;99457;-86
2023/10/26 03:47:10;;;;;;;21.67;14.38;;;;;;;11.82;nan;98105.44;4922054;28;96643;-86
2023/10/26 03:49:36;;;;;;;21.23;14.68;;;;;;;11.89;nan;98096.16;4938887;28;96759;-86
2023/10/26 03:52:01;;;;;;;21.30;14.77;;;;;;;11.73;nan;98106.97;4922435;28;101886;-85
2023/10/26 03:54:27;;;;;;;21.60;14.43;;;;;;;11.77;nan;98097.06;4922063;28;101389;-86
2023/10/26 03:56:53;;;;;;;21.05;15.35;;;;;;;11.86;nan;98104.28;4906318;28;96588;-86
2023/10/26 03:59:18;;;;;;;20.90;14.73;;;;;;;11.70;nan;98093.22;4922909;28;96873;-86
2023/10/26 04:01:44;;;;;;;20.00;14.02;;;;;;;11.80;nan;98078.44;4921920;28;101340;-86
2023/10/26 04:04:10;;;;;;;22.23;14.48;;;;;;;11.83;nan;98078.19;4922248;28;99814;-86
2023/10/26 04:06:35;;;;;;;22.20;15.38;;;;;;;11.74;nan;98065.75;4922588;28;96549;-85
2023/10/26 04:09:01;;;;;;;22.13;14.90;;;;;;;11.86;nan;98074.53;4905925;28;96581;-86
2023/10/26 04:11:26;;;;;;;22.02;14.77;;;;;;;11.82;nan;98050.25;4921285;28;101178;-86
2023/10/26 04:13:54;;;;;;;25.40;15.10;;;;;;;11.83;nan;98058.97;4921948;28;98392;-86
2023/10/26 04:16:23;;;;;;;20.13;14.60;;;;;;;11.71;nan;98048.41;4921969;28;96655;-86
2023/10/26 04:18:48;;;;;;;19.75;14.65;;;;;;;11.86;nan;98053.50;4921966;28;96737;-86
2023/10/26 04:21:14;;;;;;;22.25;16.15;;;;;;;11.87;nan;98050.78;4921793;28;100895;-86
2023/10/26 04:23:40;;;;;;;21.27;15.75;;;;;;;11.79;nan;98032.91;4922314;28;97365;-87
2023/10/26 04:26:07;;;;;;;19.08;14.10;;;;;;;11.88;nan;98052.44;4922474;28;96540;-87
2023/10/26 04:28:33;;;;;;;21.38;15.00;;;;;;;11.76;nan;98046.28;4922457;28;96786;-86
2023/10/26 04:30:58;;;;;;;21.60;14.95;;;;;;;11.61;nan;98030.84;4937945;28;100190;-87
2023/10/26 04:33:24;;;;;;;20.58;15.55;;;;;;;11.71;nan;98040.53;4921576;28;101338;-87
2023/10/26 04:35:51;;;;;;;19.52;14.25;;;;;;;11.51;nan;98015.72;4921046;28;96644;-86
2023/10/26 04:38:16;;;;;;;19.52;13.80;;;;;;;11.62;nan;98022.00;4924899;28;96807;-86
2023/10/26 04:40:44;;;;;;;20.13;13.63;;;;;;;11.77;nan;98033.97;4924483;28;101148;-88
2023/10/26 04:43:09;;;;;;;23.20;16.08;;;;;;;11.45;nan;98008.31;4924610;28;100418;-87
2023/10/26 04:45:35;;;;;;;23.35;15.40;;;;;;;11.62;nan;98022.81;4908602;28;96744;-86
2023/10/26 04:48:02;;;;;;;20.40;14.77;;;;;;;11.60;nan;98010.75;4924814;28;96830;-86
2023/10/26 04:50:32;;;;;;;22.20;15.68;;;;;;;11.55;nan;98016.38;4925077;28;97642;-86
2023/10/26 04:52:58;;;;;;;17.67;14.20;;;;;;;11.36;nan;98010.78;4925083;28;101556;-86
2023/10/26 04:55:24;;;;;;;19.08;13.93;;;;;;;11.30;nan;97998.94;4925200;28;96591;-88
2023/10/26 04:57:49;;;;;;;21.83;13.85;;;;;;;11.45;nan;97997.81;4925221;28;96851;-88
2023/10/26 05:00:15;;;;;;;18.67;13.65;;;;;;;11.47;nan;98002.94;4940606;28;100496;-89
2023/10/26 05:02:42;;;;;;;21.27;14.43;;;;;;;11.60;nan;98014.22;4909065;28;103079;-96
2023/10/26 05:05:08;;;;;;;16.83;13.68;;;;;;;11.69;nan;98004.81;4925982;28;96539;-92
2023/10/26 05:07:33;;;;;;;17.25;12.63;;;;;;;11.60;nan;97980.06;4925204;28;96541;-89
2023/10/26 05:10:00;;;;;;;18.48;12.60;;;;;;;11.58;nan;97987.22;4941146;28;101775;-91
2023/10/26 05:12:26;;;;;;;21.48;13.20;;;;;;;11.53;nan;97984.94;4924583;28;100715;-90
2023/10/26 05:14:51;;;;;;;24.75;13.93;;;;;;;11.57;nan;97996.03;4924959;28;96574;-90
2023/10/26 05:17:17;;;;;;;18.92;13.07;;;;;;;11.40;nan;97980.69;4925901;28;96589;-90
2023/10/26 05:19:43;;;;;;;23.90;14.80;;;;;;;11.45;nan;98002.22;4925019;28;101810;-90
2023/10/26 05:22:08;;;;;;;26.88;16.05;;;;;;;11.33;nan;98002.19;4925360;28;97758;-89
2023/10/26 05:24:34;;;;;;;32.53;16.65;;;;;;;11.31;nan;98004.09;4941206;28;96722;-90
2023/10/26 05:27:00;;;;;;;24.25;16.92;;;;;;;11.32;nan;97992.63;4909091;28;96566;-90
2023/10/26 05:29:28;;;;;;;23.13;15.10;;;;;;;11.34;nan;97992.50;4924572;28;101781;-90
2023/10/26 05:31:54;;;;;;;24.58;15.50;;;;;;;11.44;nan;97990.88;4940797;28;100881;-92
2023/10/26 05:34:21;;;;;;;23.08;13.60;;;;;;;11.54;nan;98002.38;4959071;28;96498;-92
2023/10/26 05:36:48;;;;;;;22.77;14.57;;;;;;;11.44;nan;97966.41;4924687;28;96573;-89
2023/10/26 05:39:15;;;;;;;20.63;13.63;;;;;;;11.62;nan;97985.19;4924171;28;101278;-93
2023/10/26 05:41:40;;;;;;;15.05;10.63;;;;;;;11.45;nan;97978.56;4924963;28;97297;-89
2023/10/26 05:44:06;;;;;;;19.30;11.75;;;;;;;11.46;nan;98002.13;4937444;28;96757;-90
2023/10/26 05:46:32;;;;;;;13.90;9.65;;;;;;;11.18;nan;97966.53;4906638;28;96908;-89
2023/10/26 05:48:58;;;;;;;12.88;9.40;;;;;;;11.33;nan;97996.91;4920559;28;98135;-88
2023/10/26 05:51:23;;;;;;;17.30;8.90;;;;;;;11.41;nan;98011.28;4937264;28;98168;-88
2023/10/26 05:53:49;;;;;;;10.60;8.88;;;;;;;11.36;nan;97997.66;4921091;28;96724;-88
2023/10/26 05:56:14;;;;;;;13.13;8.82;;;;;;;11.33;nan;98002.19;4936701;28;96595;-83
2023/10/26 05:58:40;;;;;;;15.55;7.75;;;;;;;11.44;nan;98009.28;4936556;28;101675;-89
2023/10/26 06:01:05;;;;;;;11.27;7.47;;;;;;;11.39;nan;97995.63;4920586;28;100050;-89
2023/10/26 06:03:31;;;;;;;53.55;30.27;;;;;;;11.53;nan;98011.22;4937318;28;96673;-88
2023/10/26 06:06:00;;;;;;;83.75;39.67;;;;;;;11.45;nan;97996.97;4921661;28;96652;-86
2023/10/26 06:08:26;;;;;;;26.50;14.10;;;;;;;11.56;nan;98020.66;4920136;28;98692;-86
2023/10/26 06:10:52;;;;;;;34.97;17.00;;;;;;;11.57;nan;98020.53;4919989;28;101232;-87
2023/10/26 06:13:17;;;;;;;36.92;18.70;;;;;;;11.70;nan;98023.09;4935998;28;96638;-87
2023/10/26 06:15:43;;;;;;;83.93;40.80;;;;;;;11.69;nan;98015.31;4920308;28;96928;-88
2023/10/26 06:18:09;;;;;;;29.80;15.68;;;;;;;11.85;nan;98029.03;4903938;28;100185;-89
2023/10/26 06:20:35;;;;;;;15.63;7.85;;;;;;;11.91;nan;98032.97;4919753;28;100078;-82
2023/10/26 06:23:01;;;;;;;11.90;5.47;;;;;;;12.11;nan;98036.72;4935356;28;96563;-84
2023/10/26 06:25:28;;;;;;;14.88;8.55;;;;;;;12.12;nan;98035.75;4919668;28;96638;-84
2023/10/26 06:27:55;;;;;;;24.85;14.35;;;;;;;12.16;nan;98035.41;4935204;28;101398;-84
2023/10/26 06:30:21;;;;;;;18.85;9.65;;;;;;;12.20;nan;98036.00;4935882;28;97947;-84
2023/10/26 06:32:46;;;;;;;13.23;8.20;;;;;;;12.29;nan;98037.09;4919619;28;96646;-84
2023/10/26 06:35:12;;;;;;;15.02;6.70;;;;;;;12.46;nan;98045.34;4936218;28;96887;-88
2023/10/26 06:37:38;;;;;;;17.67;7.78;;;;;;;12.60;nan;98038.19;4919244;28;101156;-88
2023/10/26 06:40:05;;;;;;;10.60;5.65;;;;;;;12.63;nan;98019.53;4936297;28;97892;-85
2023/10/26 06:42:31;;;;;;;12.55;5.05;;;;;;;12.85;nan;98040.53;4919873;28;96694;-86
2023/10/26 06:44:58;;;;;;;9.35;5.82;;;;;;;12.96;nan;98038.88;4920253;28;96924;-90
2023/10/26 06:47:23;;;;;;;12.48;5.25;;;;;;;13.04;nan;98042.56;4919756;28;101475;-86
2023/10/26 06:49:49;;;;;;;11.80;6.85;;;;;;;12.98;nan;98022.00;4919482;28;100869;-86
2023/10/26 06:52:14;;;;;;;16.20;5.93;;;;;;;13.21;nan;98045.66;4903924;28;96739;-87
2023/10/26 06:54:40;;;;;;;12.32;4.63;;;;;;;13.28;nan;98045.03;4936154;28;96844;-87
2023/10/26 06:57:05;;;;;;;8.73;4.45;;;;;;;13.29;nan;98028.28;4935434;28;100023;-87
2023/10/26 06:59:32;;;;;;;15.85;4.53;;;;;;;13.34;nan;98027.91;4918768;28;101165;-87
2023/10/26 07:01:57;;;;;;;24.40;12.55;;;;;;;13.48;nan;98042.59;4919082;28;96537;-86
2023/10/26 07:04:23;;;;;;;22.55;12.30;;;;;;;13.37;nan;98035.56;4919224;28;96603;-87
2023/10/26 07:06:49;;;;;;;15.82;9.18;;;;;;;13.46;nan;98039.22;4935170;28;100417;-85
2023/10/26 07:09:15;;;;;;;19.25;10.43;;;;;;;13.43;nan;98035.03;4918705;28;101608;-85
2023/10/26 07:11:42;;;;;;;13.73;8.73;;;;;;;13.43;nan;98034.22;4919143;28;96628;-86
2023/10/26 07:14:08;;;;;;;16.27;9.52;;;;;;;13.30;nan;98031.75;4919197;28;96985;-86
2023/10/26 07:16:33;;;;;;;17.02;9.52;;;;;;;13.36;nan;98034.72;4919228;28;98447;-85
2023/10/26 07:18:59;;;;;;;16.02;9.18;;;;;;;13.59;nan;98053.09;4935200;28;101700;-85
2023/10/26 07:21:26;;;;;;;16.83;8.75;;;;;;;13.85;nan;98055.38;4935581;28;96544;-86
2023/10/26 07:23:52;;;;;;;8.00;3.33;;;;;;;14.11;nan;98059.31;4935834;28;96939;-87
2023/10/26 07:26:18;;;;;;;5.30;2.67;;;;;;;14.48;nan;98064.06;4918713;28;101399;-88
2023/10/26 07:28:43;;;;;;;8.65;3.33;;;;;;;14.96;nan;98066.13;4919302;28;100923;-85
2023/10/26 07:31:16;;;;;;;3.97;2.25;;;;;;;15.49;nan;98057.84;4935435;28;96662;-87
2023/10/26 07:33:41;;;;;;;3.85;1.95;;;;;;;16.18;nan;98056.88;4919982;28;96726;-87
2023/10/26 07:36:07;;;;;;;3.65;1.70;;;;;;;16.67;nan;98056.75;4918712;28;99277;-85
2023/10/26 07:38:34;;;;;;;6.07;1.70;;;;;;;16.59;nan;98054.81;4918785;28;98481;-87
2023/10/26 07:41:03;;;;;;;4.15;1.35;;;;;;;16.06;nan;98069.44;4935394;28;96661;-86
2023/10/26 07:43:29;;;;;;;2.58;1.35;;;;;;;15.71;nan;98067.38;4922428;28;96915;-86
2023/10/26 07:45:54;;;;;;;3.00;1.30;;;;;;;15.40;nan;98054.22;4938541;28;98617;-87
2023/10/26 07:48:20;;;;;;;3.25;1.33;;;;;;;15.37;nan;98070.38;4922347;28;97876;-88
2023/10/26 07:50:46;;;;;;;1.73;1.00;;;;;;;15.28;nan;98076.47;4921660;28;96577;-89
2023/10/26 07:53:13;;;;;;;3.60;1.48;;;;;;;15.52;nan;98064.69;4938276;28;96886;-86
2023/10/26 07:55:39;;;;;;;2.00;0.80;;;;;;;15.99;nan;98076.25;4922212;28;101629;-86
2023/10/26 07:58:05;;;;;;;1.25;0.95;;;;;;;16.10;nan;98079.75;4938192;28;101424;-87
2023/10/26 08:00:30;;;;;;;1.77;1.23;;;;;;;16.04;nan;98076.69;4923080;28;96579;-86
2023/10/26 08:02:58;;;;;;;3.05;1.15;;;;;;;15.93;nan;98071.53;4938392;28;96832;-87
2023/10/26 08:05:23;;;;;;;2.67;0.90;;;;;;;15.74;nan;98077.69;4921558;28;101277;-87
2023/10/26 08:07:49;;;;;;;1.33;0.77;;;;;;;15.40;nan;98082.47;4906221;28;101471;-88
2023/10/26 08:10:14;;;;;;;2.47;0.80;;;;;;;15.27;nan;98089.81;4906485;28;96921;-87
2023/10/26 08:12:40;;;;;;;1.92;0.95;;;;;;;15.18;nan;98083.53;4941790;28;96891;-88
2023/10/26 08:15:06;;;;;;;1.25;0.85;;;;;;;15.09;nan;98079.91;4942052;28;97738;-87
2023/10/26 08:17:35;;;;;;;9.77;1.05;;;;;;;15.06;nan;98088.09;4941828;28;97948;-88
2023/10/26 08:20:04;;;;;;;1.70;1.20;;;;;;;14.94;nan;98084.72;4925431;28;96571;-87
2023/10/26 08:22:30;;;;;;;2.30;1.27;;;;;;;14.97;nan;98093.34;4932375;28;96478;-87
2023/10/26 08:24:56;;;;;;;2.53;1.13;;;;;;;14.77;nan;98063.41;4948520;28;99433;-88
2023/10/26 08:27:23;;;;;;;2.97;1.10;;;;;;;14.87;nan;98088.88;4920266;28;100424;-87
2023/10/26 08:29:52;;;;;;;6.05;1.17;;;;;;;14.83;nan;98091.91;4951428;28;96630;-86
2023/10/26 08:32:18;;;;;;;4.82;1.15;;;;;;;14.89;nan;98108.09;4949026;28;96588;-88
2023/10/26 08:34:45;;;;;;;4.63;1.20;;;;;;;14.98;nan;98109.09;4941136;28;100749;-87
2023/10/26 08:37:12;;;;;;;1.77;0.80;;;;;;;15.08;nan;98107.31;4941094;28;100119;-87
2023/10/26 08:39:38;;;;;;;1.73;0.82;;;;;;;15.14;nan;98105.94;4908924;28;96647;-87
2023/10/26 08:42:04;;;;;;;1.30;0.80;;;;;;;15.13;nan;98091.88;4949298;28;96946;-88
2023/10/26 08:44:32;;;;;;;2.17;1.23;;;;;;;15.12;nan;98092.84;4945513;28;100558;-90
2023/10/26 08:47:00;;;;;;;3.03;0.98;;;;;;;15.11;nan;98108.84;4922680;28;101492;-89
2023/10/26 08:49:30;;;;;;;2.50;0.80;;;;;;;15.05;nan;98112.84;4938651;28;96647;-88
2023/10/26 08:51:56;;;;;;;3.05;0.90;;;;;;;15.02;nan;98102.56;4922692;28;96861;-90
2023/10/26 08:54:21;;;;;;;3.33;1.10;;;;;;;15.12;nan;98116.63;4937949;28;97993;-88
2023/10/26 08:56:47;;;;;;;2.67;0.90;;;;;;;15.17;nan;98117.06;4939388;28;100909;-91
2023/10/26 08:59:13;;;;;;;1.42;0.90;;;;;;;15.24;nan;98116.53;4923068;28;96713;-87
2023/10/26 09:01:39;;;;;;;1.85;0.98;;;;;;;15.22;nan;98098.16;4922015;28;96949;-89
2023/10/26 09:04:08;;;;;;;2.03;1.10;;;;;;;15.20;nan;98088.69;4937582;28;100359;-90
2023/10/26 09:06:48;;;;;;;1.77;1.20;;;;;;;15.27;nan;98111.81;4938088;28;98295;-90
2023/10/26 09:09:15;;;;;;;1.00;0.77;;;;;;;15.33;nan;98113.91;4922262;28;96664;-89
2023/10/26 09:11:42;;;;;;;1.38;1.10;;;;;;;15.38;nan;98113.50;4922147;28;96777;-88
2023/10/26 09:14:21;;;;;;;1.75;0.88;;;;;;;15.47;nan;98099.44;4921353;28;100160;-89
2023/10/26 09:16:48;;;;;;;3.53;1.10;;;;;;;15.59;nan;98111.59;4921606;28;101392;-91
2023/10/26 09:19:18;;;;;;;2.88;1.30;;;;;;;15.62;nan;98108.69;4921995;28;96544;-90
2023/10/26 09:21:49;;;;;;;3.20;1.10;;;;;;;15.61;nan;98106.16;4938218;28;96511;-89
2023/10/26 09:24:26;;;;;;;3.97;1.40;;;;;;;15.58;nan;98109.09;4921468;28;101192;-90
2023/10/26 09:27:03;;;;;;;3.85;1.23;;;;;;;15.58;nan;98114.38;4921622;28;102195;-88
2023/10/26 09:29:39;;;;;;;2.28;1.05;;;;;;;15.68;nan;98114.41;4937244;28;96744;-90
2023/10/26 09:32:05;;;;;;;5.07;1.02;;;;;;;15.78;nan;98110.81;4937787;28;96841;-90
2023/10/26 09:34:31;;;;;;;6.68;1.48;;;;;;;15.99;nan;98120.41;4921288;28;100023;-89
2023/10/26 09:37:04;;;;;;;4.20;1.15;;;;;;;16.28;nan;98109.78;4936882;28;100790;-88
2023/10/26 09:39:31;;;;;;;1.25;0.75;;;;;;;16.53;nan;98116.31;4937741;28;96571;-90
2023/10/26 09:41:59;;;;;;;4.03;1.30;;;;;;;16.60;nan;98090.06;4921725;28;96871;-88
2023/10/26 09:44:25;;;;;;;1.33;0.93;;;;;;;16.90;nan;98100.47;4920778;28;101679;-89
2023/10/26 09:46:50;;;;;;;1.33;0.98;;;;;;;17.05;nan;98105.28;4922828;28;97473;-88
2023/10/26 09:49:16;;;;;;;1.50;0.88;;;;;;;17.22;nan;98096.53;4922343;28;96794;-89
2023/10/26 09:51:43;;;;;;;1.95;1.00;;;;;;;17.51;nan;98108.78;4922609;28;96562;-91
2023/10/26 09:54:09;;;;;;;1.80;1.00;;;;;;;17.71;nan;98112.97;4921314;28;100459;-90
2023/10/26 09:56:36;;;;;;;3.20;1.60;;;;;;;17.30;nan;98114.34;4938090;28;97395;-90
2023/10/26 09:59:03;;;;;;;2.47;1.58;;;;;;;16.95;nan;98098.19;4920264;28;96642;-82
2023/10/26 10:01:37;;;;;;;13.05;7.05;;;;;;;16.92;nan;98111.72;4921348;28;96796;-84
2023/10/26 10:04:04;;;;;;;10.10;6.53;;;;;;;16.77;nan;98101.75;4936805;28;101665;-87
2023/10/26 10:06:52;;;;;;;10.27;5.03;;;;;;;16.84;nan;98109.00;4936897;28;97993;-85
2023/10/26 10:09:23;;;;;;;7.15;4.18;;;;;;;16.81;nan;98113.72;4921269;28;96570;-89
2023/10/26 10:12:08;;;;;;;4.63;2.42;;;;;;;16.73;nan;98101.19;4937509;28;96872;-85
2023/10/26 10:14:54;;;;;;;6.63;2.50;;;;;;;16.97;nan;98092.75;4952538;28;98459;-84
2023/10/26 10:17:43;;;;;;;3.65;2.15;;;;;;;17.10;nan;98098.53;4952724;28;98373;-86
2023/10/26 10:20:14;;;;;;;2.88;1.90;;;;;;;17.51;nan;98098.16;4935961;28;96715;-86
2023/10/26 10:22:40;;;;;;;5.65;1.85;;;;;;;18.15;nan;98089.19;4936330;28;96899;-85
2023/10/26 10:25:10;;;;;;;4.43;1.63;;;;;;;18.04;nan;98095.56;4952295;28;98107;-84
2023/10/26 10:27:39;;;;;;;3.05;1.65;;;;;;;17.88;nan;98096.22;4920091;28;101440;-89
2023/10/26 10:30:08;;;;;;;3.65;1.58;;;;;;;17.76;nan;98092.13;4920831;28;96768;-89
2023/10/26 10:32:46;;;;;;;6.75;2.30;;;;;;;17.75;nan;98098.41;4920695;28;96653;-90
2023/10/26 10:35:15;;;;;;;4.72;1.58;;;;;;;17.43;nan;98101.56;4935196;28;101738;-89
2023/10/26 10:38:13;;;;;;;3.00;2.05;;;;;;;17.11;nan;98102.88;4920434;28;101584;-90
2023/10/26 10:40:40;;;;;;;5.07;2.13;;;;;;;16.88;nan;98101.59;4953233;28;96541;-89
2023/10/26 10:43:05;;;;;;;5.85;1.95;;;;;;;16.68;nan;98092.84;4921360;28;96592;-90
2023/10/26 10:45:31;;;;;;;6.25;2.15;;;;;;;16.55;nan;98089.66;4919057;28;101414;-89
2023/10/26 10:47:57;;;;;;;7.22;2.70;;;;;;;16.39;nan;98093.75;4920206;28;101072;-89
2023/10/26 10:50:25;;;;;;;3.20;1.95;;;;;;;16.27;nan;98100.19;4920846;28;96580;-89
2023/10/26 10:52:55;;;;;;;6.93;2.53;;;;;;;16.05;nan;98083.63;4920339;28;96788;-88
2023/10/26 10:55:31;;;;;;;4.13;1.90;;;;;;;15.97;nan;98080.88;4919968;28;101084;-90
2023/10/26 10:57:58;;;;;;;5.88;1.60;;;;;;;15.91;nan;98093.81;4920484;28;100235;-90
2023/10/26 11:00:28;;;;;;;3.08;1.70;;;;;;;15.71;nan;98071.84;4937544;28;96672;-88
2023/10/26 11:02:56;;;;;;;4.20;1.63;;;;;;;15.77;nan;98095.09;4920249;28;96554;-88
2023/10/26 11:05:34;;;;;;;2.55;1.40;;;;;;;15.55;nan;98077.63;4919664;28;97615;-85
2023/10/26 11:08:00;;;;;;;7.03;1.48;;;;;;;15.54;nan;98091.84;4935294;28;97560;-85
2023/10/26 11:10:25;;;;;;;2.25;1.25;;;;;;;15.53;nan;98088.34;4934854;28;96654;-86
2023/10/26 11:12:51;;;;;;;3.28;1.25;;;;;;;15.57;nan;98116.19;4918940;28;97016;-86
2023/10/26 11:15:17;;;;;;;4.30;1.42;;;;;;;15.54;nan;98105.88;4935163;28;101182;-86
2023/10/26 11:17:43;;;;;;;2.10;1.10;;;;;;;15.52;nan;98109.63;4951051;28;97781;-85
2023/10/26 11:20:42;;;;;;;2.17;1.40;;;;;;;15.49;nan;98107.25;4919446;28;96567;-87
2023/10/26 11:23:09;;;;;;;3.63;1.40;;;;;;;15.37;nan;98093.34;4887608;28;96964;-86
2023/10/26 11:25:35;;;;;;;5.45;1.40;;;;;;;15.32;nan;98100.81;4935439;28;97412;-86
2023/10/26 11:28:01;;;;;;;4.03;1.30;;;;;;;15.23;nan;98083.97;4935767;28;101585;-85
2023/10/26 11:30:27;;;;;;;5.50;1.40;;;;;;;15.39;nan;98112.53;4936246;28;96568;-87
2023/10/26 11:32:53;;;;;;;3.85;1.40;;;;;;;15.28;nan;98094.97;4919725;28;96902;-87
2023/10/26 11:35:19;;;;;;;12.00;1.42;;;;;;;15.40;nan;98111.56;4918665;28;101120;-88